sensor_id;sensor_type;location;lat;lon;timestamp;pressure;altitude;pressure_sealevel;temperature;humidity
55456;BME280;63021;52.836;6.376;2023-03-31T00:01:32;100349.22;;;10.94;72.09
55456;BME280;63021;52.836;6.376;2023-03-31T00:03:58;100339.56;;;10.92;72.28
55456;BME280;63021;52.836;6.376;2023-03-31T00:06:32;100343.22;;;10.91;72.15
55456;BME280;63021;52.836;6.376;2023-03-31T00:09:05;100320.06;;;10.84;72.24
55456;BME280;63021;52.836;6.376;2023-03-31T00:11:31;100315.22;;;10.79;72.25
55456;BME280;63021;52.836;6.376;2023-03-31T00:13:56;100322.88;;;10.82;71.96
55456;BME280;63021;52.836;6.376;2023-03-31T00:16:22;100322.19;;;10.80;72.02
55456;BME280;63021;52.836;6.376;2023-03-31T00:18:47;100325.03;;;10.79;72.38
55456;BME280;63021;52.836;6.376;2023-03-31T00:21:18;100321.53;;;10.78;71.75
55456;BME280;63021;52.836;6.376;2023-03-31T00:23:56;100310.34;;;10.74;72.12
55456;BME280;63021;52.836;6.376;2023-03-31T00:26:23;100320.50;;;10.71;71.97
55456;BME280;63021;52.836;6.376;2023-03-31T00:28:49;100313.84;;;10.67;72.18
55456;BME280;63021;52.836;6.376;2023-03-31T00:31:15;100300.84;;;10.64;72.29
55456;BME280;63021;52.836;6.376;2023-03-31T00:33:40;100300.19;;;10.62;72.18
55456;BME280;63021;52.836;6.376;2023-03-31T00:36:06;100283.53;;;10.60;72.33
55456;BME280;63021;52.836;6.376;2023-03-31T00:38:33;100280.38;;;10.56;72.31
55456;BME280;63021;52.836;6.376;2023-03-31T00:40:59;100274.19;;;10.55;71.85
55456;BME280;63021;52.836;6.376;2023-03-31T00:43:34;100265.56;;;10.53;72.56
55456;BME280;63021;52.836;6.376;2023-03-31T00:46:11;100267.53;;;10.51;71.98
55456;BME280;63021;52.836;6.376;2023-03-31T00:49:00;100275.19;;;10.46;72.03
55456;BME280;63021;52.836;6.376;2023-03-31T00:51:27;100270.69;;;10.47;72.12
55456;BME280;63021;52.836;6.376;2023-03-31T00:53:56;100262.03;;;10.45;72.10
55456;BME280;63021;52.836;6.376;2023-03-31T00:56:25;100258.19;;;10.39;72.02
55456;BME280;63021;52.836;6.376;2023-03-31T00:58:56;100254.84;;;10.37;72.30
55456;BME280;63021;52.836;6.376;2023-03-31T01:01:25;100255.84;;;10.36;71.82
55456;BME280;63021;52.836;6.376;2023-03-31T01:03:51;100248.13;;;10.33;72.10
55456;BME280;63021;52.836;6.376;2023-03-31T01:06:17;100244.97;;;10.29;71.97
55456;BME280;63021;52.836;6.376;2023-03-31T01:08:45;100251.44;;;10.27;71.87
55456;BME280;63021;52.836;6.376;2023-03-31T01:11:14;100238.78;;;10.20;72.28
55456;BME280;63021;52.836;6.376;2023-03-31T01:13:41;100238.78;;;10.20;71.90
55456;BME280;63021;52.836;6.376;2023-03-31T01:16:08;100236.28;;;10.19;72.40
55456;BME280;63021;52.836;6.376;2023-03-31T01:18:34;100233.78;;;10.17;72.30
55456;BME280;63021;52.836;6.376;2023-03-31T01:49:00;100176.69;;;10.03;72.24
55456;BME280;63021;52.836;6.376;2023-03-31T02:00:02;100150.94;;;9.96;72.77
55456;BME280;63021;52.836;6.376;2023-03-31T02:02:39;100150.94;;;9.96;72.61
55456;BME280;63021;52.836;6.376;2023-03-31T02:05:10;100145.59;;;9.96;72.45
55456;BME280;63021;52.836;6.376;2023-03-31T02:07:51;100141.28;;;9.95;72.80
55456;BME280;63021;52.836;6.376;2023-03-31T02:10:19;100131.94;;;9.91;72.65
55456;BME280;63021;52.836;6.376;2023-03-31T02:12:46;100131.63;;;9.94;72.79
55456;BME280;63021;52.836;6.376;2023-03-31T02:15:17;100128.97;;;9.94;72.94
55456;BME280;63021;52.836;6.376;2023-03-31T02:17:48;100117.13;;;9.88;73.33
55456;BME280;63021;52.836;6.376;2023-03-31T02:20:16;100121.69;;;9.96;73.35
55456;BME280;63021;52.836;6.376;2023-03-31T02:22:47;100117.19;;;9.96;73.01
55456;BME280;63021;52.836;6.376;2023-03-31T02:25:16;100108.38;;;9.96;73.58
55456;BME280;63021;52.836;6.376;2023-03-31T02:27:48;100109.38;;;9.95;73.07
55456;BME280;63021;52.836;6.376;2023-03-31T02:30:15;100104.88;;;9.95;73.35
55456;BME280;63021;52.836;6.376;2023-03-31T02:32:43;100102.22;;;9.95;74.12
55456;BME280;63021;52.836;6.376;2023-03-31T02:35:11;100101.38;;;9.95;73.52
55456;BME280;63021;52.836;6.376;2023-03-31T02:37:39;100085.44;;;9.95;74.04
55456;BME280;63021;52.836;6.376;2023-03-31T02:40:07;100084.28;;;9.97;74.09
55456;BME280;63021;52.836;6.376;2023-03-31T02:42:38;100085.81;;;10.00;74.58
55456;BME280;63021;52.836;6.376;2023-03-31T02:45:34;100080.31;;;10.01;74.54
55456;BME280;63021;52.836;6.376;2023-03-31T02:47:52;100070.34;;;10.03;74.70
55456;BME280;63021;52.836;6.376;2023-03-31T02:50:23;100058.53;;;10.06;74.59
55456;BME280;63021;52.836;6.376;2023-03-31T02:53:08;100053.88;;;10.08;74.09
55456;BME280;63021;52.836;6.376;2023-03-31T02:56:03;100046.59;;;10.10;74.49
55456;BME280;63021;52.836;6.376;2023-03-31T02:58:55;100039.75;;;10.08;74.36
55456;BME280;63021;52.836;6.376;2023-03-31T03:07:04;100027.66;;;10.13;74.56
55456;BME280;63021;52.836;6.376;2023-03-31T03:12:28;100020.16;;;10.17;74.67
55456;BME280;63021;52.836;6.376;2023-03-31T03:20:05;100008.19;;;10.21;75.02
55456;BME280;63021;52.836;6.376;2023-03-31T03:22:33;99998.41;;;10.21;75.02
55456;BME280;63021;52.836;6.376;2023-03-31T03:24:58;99991.91;;;10.24;74.50
55456;BME280;63021;52.836;6.376;2023-03-31T03:27:23;99994.38;;;10.26;75.27
55456;BME280;63021;52.836;6.376;2023-03-31T03:29:49;99983.25;;;10.22;75.93
55456;BME280;63021;52.836;6.376;2023-03-31T03:32:15;99976.44;;;10.28;75.35
55456;BME280;63021;52.836;6.376;2023-03-31T03:34:41;99973.97;;;10.26;75.12
55456;BME280;63021;52.836;6.376;2023-03-31T03:37:06;99970.31;;;10.27;76.20
55456;BME280;63021;52.836;6.376;2023-03-31T03:39:31;99970.13;;;10.29;75.88
55456;BME280;63021;52.836;6.376;2023-03-31T03:41:57;99959.50;;;10.29;76.15
55456;BME280;63021;52.836;6.376;2023-03-31T03:44:23;99953.34;;;10.28;75.63
55456;BME280;63021;52.836;6.376;2023-03-31T03:46:49;99950.66;;;10.28;76.04
55456;BME280;63021;52.836;6.376;2023-03-31T03:49:14;99946.19;;;10.29;76.38
55456;BME280;63021;52.836;6.376;2023-03-31T03:51:40;99934.88;;;10.27;76.74
55456;BME280;63021;52.836;6.376;2023-03-31T03:54:05;99934.72;;;10.28;76.42
55456;BME280;63021;52.836;6.376;2023-03-31T03:56:30;99926.06;;;10.26;76.96
55456;BME280;63021;52.836;6.376;2023-03-31T03:58:56;99922.09;;;10.30;76.56
55456;BME280;63021;52.836;6.376;2023-03-31T04:01:22;99904.47;;;10.29;76.21
55456;BME280;63021;52.836;6.376;2023-03-31T04:03:47;99904.78;;;10.26;76.58
55456;BME280;63021;52.836;6.376;2023-03-31T04:06:13;99899.97;;;10.30;76.60
55456;BME280;63021;52.836;6.376;2023-03-31T04:08:39;99893.97;;;10.28;76.39
55456;BME280;63021;52.836;6.376;2023-03-31T04:11:12;99890.34;;;10.29;76.95
55456;BME280;63021;52.836;6.376;2023-03-31T04:13:38;99886.66;;;10.30;77.01
55456;BME280;63021;52.836;6.376;2023-03-31T04:16:03;99874.69;;;10.26;77.19
55456;BME280;63021;52.836;6.376;2023-03-31T04:18:29;99879.69;;;10.29;77.02
55456;BME280;63021;52.836;6.376;2023-03-31T04:20:54;99870.03;;;10.28;77.13
55456;BME280;63021;52.836;6.376;2023-03-31T04:23:31;99865.38;;;10.30;76.34
55456;BME280;63021;52.836;6.376;2023-03-31T04:25:57;99864.03;;;10.26;76.67
55456;BME280;63021;52.836;6.376;2023-03-31T04:28:22;99865.72;;;10.27;77.10
55456;BME280;63021;52.836;6.376;2023-03-31T04:30:47;99860.41;;;10.27;77.25
55456;BME280;63021;52.836;6.376;2023-03-31T04:33:13;99849.94;;;10.25;77.47
55456;BME280;63021;52.836;6.376;2023-03-31T04:35:40;99838.47;;;10.25;76.90
55456;BME280;63021;52.836;6.376;2023-03-31T04:38:18;99842.44;;;10.29;77.02
55456;BME280;63021;52.836;6.376;2023-03-31T04:40:48;99832.00;;;10.27;77.25
55456;BME280;63021;52.836;6.376;2023-03-31T04:43:14;99825.47;;;10.30;77.24
55456;BME280;63021;52.836;6.376;2023-03-31T04:45:40;99823.31;;;10.25;77.17
55456;BME280;63021;52.836;6.376;2023-03-31T04:48:06;99828.97;;;10.30;77.31
55456;BME280;63021;52.836;6.376;2023-03-31T04:50:32;99812.50;;;10.27;77.47
55456;BME280;63021;52.836;6.376;2023-03-31T04:52:57;99817.03;;;10.26;77.19
55456;BME280;63021;52.836;6.376;2023-03-31T04:55:23;99812.50;;;10.27;77.21
55456;BME280;63021;52.836;6.376;2023-03-31T04:57:48;99802.72;;;10.27;77.50
55456;BME280;63021;52.836;6.376;2023-03-31T05:00:14;99790.59;;;10.25;77.71
55456;BME280;63021;52.836;6.376;2023-03-31T05:02:40;99790.59;;;10.25;78.35
55456;BME280;63021;52.836;6.376;2023-03-31T05:05:05;99780.94;;;10.23;78.03
55456;BME280;63021;52.836;6.376;2023-03-31T05:07:31;99772.31;;;10.21;77.86
55456;BME280;63021;52.836;6.376;2023-03-31T05:09:56;99777.28;;;10.25;77.92
55456;BME280;63021;52.836;6.376;2023-03-31T05:12:22;99771.47;;;10.21;78.18
55456;BME280;63021;52.836;6.376;2023-03-31T05:14:47;99778.28;;;10.23;78.11
55456;BME280;63021;52.836;6.376;2023-03-31T05:17:13;99773.13;;;10.22;78.07
55456;BME280;63021;52.836;6.376;2023-03-31T05:19:38;99767.66;;;10.23;78.29
55456;BME280;63021;52.836;6.376;2023-03-31T05:22:04;99765.81;;;10.24;77.79
55456;BME280;63021;52.836;6.376;2023-03-31T05:24:29;99755.84;;;10.18;78.29
55456;BME280;63021;52.836;6.376;2023-03-31T05:26:55;99756.34;;;10.21;78.53
55456;BME280;63021;52.836;6.376;2023-03-31T05:29:22;99743.38;;;10.18;77.95
55456;BME280;63021;52.836;6.376;2023-03-31T05:31:48;99738.91;;;10.19;78.64
55456;BME280;63021;52.836;6.376;2023-03-31T05:34:14;99747.34;;;10.22;78.15
55456;BME280;63021;52.836;6.376;2023-03-31T05:36:40;99736.72;;;10.22;78.79
55456;BME280;63021;52.836;6.376;2023-03-31T05:39:08;99732.25;;;10.23;78.05
55456;BME280;63021;52.836;6.376;2023-03-31T05:41:34;99727.09;;;10.21;78.63
55456;BME280;63021;52.836;6.376;2023-03-31T05:44:00;99720.75;;;10.22;78.81
55456;BME280;63021;52.836;6.376;2023-03-31T05:46:26;99708.47;;;10.21;78.38
55456;BME280;63021;52.836;6.376;2023-03-31T05:48:52;99706.81;;;10.20;78.90
55456;BME280;63021;52.836;6.376;2023-03-31T05:51:17;99701.50;;;10.20;78.78
55456;BME280;63021;52.836;6.376;2023-03-31T05:53:42;99692.56;;;10.13;78.54
55456;BME280;63021;52.836;6.376;2023-03-31T05:56:08;99683.72;;;10.13;79.25
55456;BME280;63021;52.836;6.376;2023-03-31T05:58:34;99682.22;;;10.18;78.85
55456;BME280;63021;52.836;6.376;2023-03-31T06:03:37;99672.09;;;10.14;78.98
55456;BME280;63021;52.836;6.376;2023-03-31T06:06:03;99671.09;;;10.15;78.80
55456;BME280;63021;52.836;6.376;2023-03-31T06:08:33;99669.09;;;10.17;79.36
55456;BME280;63021;52.836;6.376;2023-03-31T06:10:59;99668.91;;;10.18;79.28
55456;BME280;63021;52.836;6.376;2023-03-31T06:13:24;99654.47;;;10.13;79.12
55456;BME280;63021;52.836;6.376;2023-03-31T06:15:58;99661.59;;;10.20;79.06
55456;BME280;63021;52.836;6.376;2023-03-31T06:18:23;99657.28;;;10.19;78.64
55456;BME280;63021;52.836;6.376;2023-03-31T06:20:50;99653.63;;;10.20;78.62
55456;BME280;63021;52.836;6.376;2023-03-31T06:23:16;99643.81;;;10.21;78.78
55456;BME280;63021;52.836;6.376;2023-03-31T06:25:41;99648.13;;;10.22;79.20
55456;BME280;63021;52.836;6.376;2023-03-31T06:28:07;99639.34;;;10.21;79.25
55456;BME280;63021;52.836;6.376;2023-03-31T06:30:32;99640.31;;;10.20;79.02
55456;BME280;63021;52.836;6.376;2023-03-31T06:32:58;99635.00;;;10.20;79.27
55456;BME280;63021;52.836;6.376;2023-03-31T06:35:23;99623.69;;;10.18;79.58
55456;BME280;63021;52.836;6.376;2023-03-31T06:37:49;99629.50;;;10.22;79.34
55456;BME280;63021;52.836;6.376;2023-03-31T06:40:14;99626.69;;;10.23;79.35
55456;BME280;63021;52.836;6.376;2023-03-31T06:42:40;99612.75;;;10.21;79.15
55456;BME280;63021;52.836;6.376;2023-03-31T06:45:06;99615.41;;;10.21;79.14
55456;BME280;63021;52.836;6.376;2023-03-31T06:47:31;99615.22;;;10.23;78.78
55456;BME280;63021;52.836;6.376;2023-03-31T06:49:56;99597.28;;;10.17;79.59
55456;BME280;63021;52.836;6.376;2023-03-31T06:52:22;99601.75;;;10.25;79.27
55456;BME280;63021;52.836;6.376;2023-03-31T06:54:47;99597.06;;;10.27;79.60
55456;BME280;63021;52.836;6.376;2023-03-31T06:57:12;99597.06;;;10.27;79.04
55456;BME280;63021;52.836;6.376;2023-03-31T06:59:38;99587.28;;;10.27;79.80
55456;BME280;63021;52.836;6.376;2023-03-31T07:02:03;99585.44;;;10.28;79.53
55456;BME280;63021;52.836;6.376;2023-03-31T07:04:29;99580.94;;;10.28;79.28
55456;BME280;63021;52.836;6.376;2023-03-31T07:06:54;99585.06;;;10.31;79.62
55456;BME280;63021;52.836;6.376;2023-03-31T07:09:20;99577.09;;;10.31;79.63
55456;BME280;63021;52.836;6.376;2023-03-31T07:11:47;99568.28;;;10.30;78.76
55456;BME280;63021;52.836;6.376;2023-03-31T07:14:13;99566.44;;;10.31;79.09
55456;BME280;63021;52.836;6.376;2023-03-31T07:16:38;99573.63;;;10.30;79.72
55456;BME280;63021;52.836;6.376;2023-03-31T07:19:05;99566.28;;;10.32;79.60
55456;BME280;63021;52.836;6.376;2023-03-31T07:21:32;99559.00;;;10.34;79.93
55456;BME280;63021;52.836;6.376;2023-03-31T07:23:57;99555.31;;;10.35;79.24
55456;BME280;63021;52.836;6.376;2023-03-31T07:26:23;99557.16;;;10.35;79.37
55456;BME280;63021;52.836;6.376;2023-03-31T07:28:49;99549.81;;;10.37;79.81
55456;BME280;63021;52.836;6.376;2023-03-31T07:31:16;99548.81;;;10.38;79.63
55456;BME280;63021;52.836;6.376;2023-03-31T07:33:42;99542.00;;;10.35;80.29
55456;BME280;63021;52.836;6.376;2023-03-31T07:36:08;99542.00;;;10.35;79.70
55456;BME280;63021;52.836;6.376;2023-03-31T07:38:34;99536.16;;;10.40;80.08
55456;BME280;63021;52.836;6.376;2023-03-31T07:40:59;99544.97;;;10.40;79.68
55456;BME280;63021;52.836;6.376;2023-03-31T07:43:25;99535.16;;;10.41;79.74
55456;BME280;63021;52.836;6.376;2023-03-31T07:45:50;99537.09;;;10.47;80.31
55456;BME280;63021;52.836;6.376;2023-03-31T07:48:15;99530.94;;;10.47;80.40
55456;BME280;63021;52.836;6.376;2023-03-31T07:50:41;99527.09;;;10.49;80.31
55456;BME280;63021;52.836;6.376;2023-03-31T07:53:07;99533.06;;;10.51;80.42
55456;BME280;63021;52.836;6.376;2023-03-31T07:55:33;99527.56;;;10.53;80.14
55456;BME280;63021;52.836;6.376;2023-03-31T07:57:58;99518.75;;;10.52;80.25
55456;BME280;63021;52.836;6.376;2023-03-31T08:00:24;99522.72;;;10.56;80.77
55456;BME280;63021;52.836;6.376;2023-03-31T08:02:49;99507.56;;;10.57;80.26
55456;BME280;63021;52.836;6.376;2023-03-31T08:05:16;99528.16;;;10.63;81.06
55456;BME280;63021;52.836;6.376;2023-03-31T08:07:44;99515.69;;;10.64;80.71
55456;BME280;63021;52.836;6.376;2023-03-31T08:10:20;99515.97;;;10.69;80.76
55456;BME280;63021;52.836;6.376;2023-03-31T08:12:46;99513.94;;;10.71;80.64
55456;BME280;63021;52.836;6.376;2023-03-31T08:15:11;99517.25;;;10.73;80.81
55456;BME280;63021;52.836;6.376;2023-03-31T08:17:38;99507.25;;;10.75;81.15
55456;BME280;63021;52.836;6.376;2023-03-31T08:20:04;99498.59;;;10.73;80.46
55456;BME280;63021;52.836;6.376;2023-03-31T08:22:31;99499.53;;;10.80;80.90
55456;BME280;63021;52.836;6.376;2023-03-31T08:24:57;99501.19;;;10.81;80.94
55456;BME280;63021;52.836;6.376;2023-03-31T08:27:22;99503.31;;;10.86;80.78
55456;BME280;63021;52.836;6.376;2023-03-31T08:29:48;99502.13;;;10.88;80.53
55456;BME280;63021;52.836;6.376;2023-03-31T08:32:14;99498.28;;;10.91;80.23
55456;BME280;63021;52.836;6.376;2023-03-31T08:34:39;99498.91;;;10.93;80.74
55456;BME280;63021;52.836;6.376;2023-03-31T08:37:07;99492.22;;;10.97;80.42
55456;BME280;63021;52.836;6.376;2023-03-31T08:39:32;99492.88;;;10.99;80.45
55456;BME280;63021;52.836;6.376;2023-03-31T08:42:47;99498.28;;;11.06;80.41
55456;BME280;63021;52.836;6.376;2023-03-31T08:45:38;99501.13;;;11.04;79.87
55456;BME280;63021;52.836;6.376;2023-03-31T08:48:23;99496.72;;;11.12;80.36
55456;BME280;63021;52.836;6.376;2023-03-31T08:51:03;99492.06;;;11.14;80.12
55456;BME280;63021;52.836;6.376;2023-03-31T08:53:33;99488.19;;;11.16;80.58
55456;BME280;63021;52.836;6.376;2023-03-31T08:56:03;99489.13;;;11.23;79.68
55456;BME280;63021;52.836;6.376;2023-03-31T08:58:43;99486.09;;;11.26;80.43
55456;BME280;63021;52.836;6.376;2023-03-31T09:11:53;99471.91;;;11.41;80.09
55456;BME280;63021;52.836;6.376;2023-03-31T09:17:23;99475.22;;;11.43;79.86
55456;BME280;63021;52.836;6.376;2023-03-31T09:20:04;99476.97;;;11.51;80.09
55456;BME280;63021;52.836;6.376;2023-03-31T09:23:00;99455.09;;;11.40;79.78
55456;BME280;63021;52.836;6.376;2023-03-31T09:25:31;99476.78;;;11.52;79.70
55456;BME280;63021;52.836;6.376;2023-03-31T09:27:58;99462.16;;;11.48;79.89
55456;BME280;63021;52.836;6.376;2023-03-31T09:30:29;99456.47;;;11.51;79.61
55456;BME280;63021;52.836;6.376;2023-03-31T09:33:17;99458.75;;;11.54;79.92
55456;BME280;63021;52.836;6.376;2023-03-31T09:35:42;99461.69;;;11.59;79.89
55456;BME280;63021;52.836;6.376;2023-03-31T09:38:11;99457.59;;;11.64;80.06
55456;BME280;63021;52.836;6.376;2023-03-31T09:40:38;99468.72;;;11.67;79.51
55456;BME280;63021;52.836;6.376;2023-03-31T09:43:07;99465.88;;;11.69;79.84
55456;BME280;63021;52.836;6.376;2023-03-31T09:45:35;99457.69;;;11.70;79.53
55456;BME280;63021;52.836;6.376;2023-03-31T09:48:03;99457.31;;;11.73;79.70
55456;BME280;63021;52.836;6.376;2023-03-31T09:50:34;99452.81;;;11.74;80.29
55456;BME280;63021;52.836;6.376;2023-03-31T09:53:03;99449.81;;;11.84;79.95
55456;BME280;63021;52.836;6.376;2023-03-31T09:55:38;99450.91;;;11.89;80.01
55456;BME280;63021;52.836;6.376;2023-03-31T09:58:11;99447.88;;;11.92;79.54
55456;BME280;63021;52.836;6.376;2023-03-31T10:00:41;99454.31;;;11.98;79.48
55456;BME280;63021;52.836;6.376;2023-03-31T10:03:11;99443.69;;;12.05;79.80
55456;BME280;63021;52.836;6.376;2023-03-31T10:05:49;99443.78;;;12.11;79.72
55456;BME280;63021;52.836;6.376;2023-03-31T10:10:47;99440.97;;;12.20;79.73
55456;BME280;63021;52.836;6.376;2023-03-31T10:13:16;99444.28;;;12.22;79.75
55456;BME280;63021;52.836;6.376;2023-03-31T10:15:43;99442.03;;;12.25;79.76
55456;BME280;63021;52.836;6.376;2023-03-31T10:18:13;99442.47;;;12.29;79.77
55456;BME280;63021;52.836;6.376;2023-03-31T10:20:44;99441.09;;;12.33;79.32
55456;BME280;63021;52.836;6.376;2023-03-31T10:25:46;99435.41;;;12.43;79.20
55456;BME280;63021;52.836;6.376;2023-03-31T10:28:16;99429.50;;;12.47;79.35
55456;BME280;63021;52.836;6.376;2023-03-31T10:30:50;99430.56;;;12.53;79.23
55456;BME280;63021;52.836;6.376;2023-03-31T10:33:28;99427.31;;;12.58;79.21
55456;BME280;63021;52.836;6.376;2023-03-31T10:36:25;99420.22;;;12.72;79.21
55456;BME280;63021;52.836;6.376;2023-03-31T10:38:52;99419.22;;;12.79;78.84
55456;BME280;63021;52.836;6.376;2023-03-31T10:41:23;99407.94;;;12.84;78.47
55456;BME280;63021;52.836;6.376;2023-03-31T10:43:55;99414.94;;;12.85;79.09
55456;BME280;63021;52.836;6.376;2023-03-31T10:46:42;99417.22;;;12.88;78.23
55456;BME280;63021;52.836;6.376;2023-03-31T10:49:19;99415.56;;;12.87;78.67
55456;BME280;63021;52.836;6.376;2023-03-31T10:51:58;99398.50;;;12.81;78.12
55456;BME280;63021;52.836;6.376;2023-03-31T10:54:25;99415.94;;;12.84;78.07
55456;BME280;63021;52.836;6.376;2023-03-31T10:56:53;99417.63;;;12.85;77.90
55456;BME280;63021;52.836;6.376;2023-03-31T11:29:47;99397.78;;;12.66;78.43
55456;BME280;63021;52.836;6.376;2023-03-31T11:32:51;99400.88;;;12.70;78.29
55456;BME280;63021;52.836;6.376;2023-03-31T11:40:46;99388.84;;;12.80;78.51
55456;BME280;63021;52.836;6.376;2023-03-31T11:43:41;99390.50;;;12.81;78.78
55456;BME280;63021;52.836;6.376;2023-03-31T11:46:16;99377.56;;;12.85;78.84
55456;BME280;63021;52.836;6.376;2023-03-31T11:48:59;99375.72;;;12.92;78.63
55456;BME280;63021;52.836;6.376;2023-03-31T11:51:31;99381.72;;;12.94;78.73
55456;BME280;63021;52.836;6.376;2023-03-31T11:54:02;99369.22;;;13.02;78.90
55456;BME280;63021;52.836;6.376;2023-03-31T11:56:37;99371.50;;;13.11;78.58
55456;BME280;63021;52.836;6.376;2023-03-31T11:59:05;99366.78;;;13.20;79.26
55456;BME280;63021;52.836;6.376;2023-03-31T12:01:54;99355.72;;;13.23;78.84
55456;BME280;63021;52.836;6.376;2023-03-31T12:06:48;99360.50;;;13.34;78.53
55456;BME280;63021;52.836;6.376;2023-03-31T12:09:26;99362.78;;;13.38;78.84
55456;BME280;63021;52.836;6.376;2023-03-31T12:15:02;99351.28;;;13.44;78.25
55456;BME280;63021;52.836;6.376;2023-03-31T12:17:31;99350.06;;;13.53;78.27
55456;BME280;63021;52.836;6.376;2023-03-31T12:20:01;99340.63;;;13.64;78.51
55456;BME280;63021;52.836;6.376;2023-03-31T12:22:44;99342.06;;;13.73;77.88
55456;BME280;63021;52.836;6.376;2023-03-31T12:25:14;99347.84;;;13.83;78.07
55456;BME280;63021;52.836;6.376;2023-03-31T12:27:45;99339.00;;;13.90;77.89
55456;BME280;63021;52.836;6.376;2023-03-31T12:30:27;99334.69;;;13.95;77.55
55456;BME280;63021;52.836;6.376;2023-03-31T12:32:57;99336.94;;;13.98;77.63
55456;BME280;63021;52.836;6.376;2023-03-31T12:43:50;99331.78;;;13.97;76.43
55456;BME280;63021;52.836;6.376;2023-03-31T12:52:07;99329.09;;;13.90;76.06
55456;BME280;63021;52.836;6.376;2023-03-31T12:57:27;99320.91;;;13.85;75.04
55456;BME280;63021;52.836;6.376;2023-03-31T13:02:41;99310.41;;;13.83;74.85
55456;BME280;63021;52.836;6.376;2023-03-31T13:08:00;99308.31;;;13.79;75.16
55456;BME280;63021;52.836;6.376;2023-03-31T13:10:28;99304.84;;;13.78;74.77
55456;BME280;63021;52.836;6.376;2023-03-31T13:13:04;99301.53;;;13.76;75.47
55456;BME280;63021;52.836;6.376;2023-03-31T13:15:30;99306.69;;;13.71;74.94
55456;BME280;63021;52.836;6.376;2023-03-31T13:18:01;99305.25;;;13.68;75.60
55456;BME280;63021;52.836;6.376;2023-03-31T13:20:38;99302.97;;;13.65;75.51
55456;BME280;63021;52.836;6.376;2023-03-31T13:25:37;99318.59;;;13.48;74.43
55456;BME280;63021;52.836;6.376;2023-03-31T13:28:15;99321.41;;;13.33;74.46
55456;BME280;63021;52.836;6.376;2023-03-31T13:33:10;99313.13;;;13.08;75.19
55456;BME280;63021;52.836;6.376;2023-03-31T13:35:39;99298.50;;;12.97;75.13
55456;BME280;63021;52.836;6.376;2023-03-31T13:41:16;99306.50;;;12.91;75.71
55456;BME280;63021;52.836;6.376;2023-03-31T13:52:12;99312.81;;;12.76;76.34
55456;BME280;63021;52.836;6.376;2023-03-31T13:55:15;99302.53;;;12.80;76.63
55456;BME280;63021;52.836;6.376;2023-03-31T14:06:01;99302.94;;;12.77;75.79
55456;BME280;63021;52.836;6.376;2023-03-31T14:08:42;99300.06;;;12.72;75.13
55456;BME280;63021;52.836;6.376;2023-03-31T14:11:24;99302.94;;;12.70;75.15
55456;BME280;63021;52.836;6.376;2023-03-31T14:14:15;99292.44;;;12.69;75.21
55456;BME280;63021;52.836;6.376;2023-03-31T14:16:50;99290.16;;;12.65;75.22
55456;BME280;63021;52.836;6.376;2023-03-31T14:30:41;99278.91;;;12.77;75.49
55456;BME280;63021;52.836;6.376;2023-03-31T14:33:36;99274.41;;;12.84;76.04
55456;BME280;63021;52.836;6.376;2023-03-31T14:36:23;99273.00;;;12.88;75.82
55456;BME280;63021;52.836;6.376;2023-03-31T14:39:00;99275.06;;;12.93;75.46
55456;BME280;63021;52.836;6.376;2023-03-31T14:41:27;99266.88;;;12.94;75.38
55456;BME280;63021;52.836;6.376;2023-03-31T14:43:59;99268.50;;;12.95;75.54
55456;BME280;63021;52.836;6.376;2023-03-31T14:46:25;99258.25;;;12.99;75.59
55456;BME280;63021;52.836;6.376;2023-03-31T14:48:51;99261.53;;;13.01;75.90
55456;BME280;63021;52.836;6.376;2023-03-31T14:51:27;99259.69;;;13.02;75.51
55456;BME280;63021;52.836;6.376;2023-03-31T14:53:58;99258.03;;;13.00;75.14
55456;BME280;63021;52.836;6.376;2023-03-31T14:56:44;99262.38;;;13.02;75.31
55456;BME280;63021;52.836;6.376;2023-03-31T14:59:23;99258.03;;;13.00;75.33
55456;BME280;63021;52.836;6.376;2023-03-31T15:01:50;99250.03;;;13.00;75.38
55456;BME280;63021;52.836;6.376;2023-03-31T15:04:20;99252.69;;;13.07;76.04
55456;BME280;63021;52.836;6.376;2023-03-31T15:06:47;99249.84;;;13.09;75.78
55456;BME280;63021;52.836;6.376;2023-03-31T15:09:28;99245.91;;;13.11;76.26
55456;BME280;63021;52.836;6.376;2023-03-31T15:11:58;99240.00;;;13.16;75.64
55456;BME280;63021;52.836;6.376;2023-03-31T15:14:29;99235.69;;;13.22;76.03
55456;BME280;63021;52.836;6.376;2023-03-31T15:16:55;99236.09;;;13.25;76.53
55456;BME280;63021;52.836;6.376;2023-03-31T15:19:28;99231.97;;;13.29;76.32
55456;BME280;63021;52.836;6.376;2023-03-31T15:21:57;99231.56;;;13.32;75.90
55456;BME280;63021;52.836;6.376;2023-03-31T15:24:26;99233.66;;;13.37;76.17
55456;BME280;63021;52.836;6.376;2023-03-31T15:27:26;99230.97;;;13.37;75.69
55456;BME280;63021;52.836;6.376;2023-03-31T15:29:54;99228.50;;;13.36;75.29
55456;BME280;63021;52.836;6.376;2023-03-31T15:32:23;99225.41;;;13.32;75.28
55456;BME280;63021;52.836;6.376;2023-03-31T15:34:50;99216.16;;;13.28;75.35
55456;BME280;63021;52.836;6.376;2023-03-31T15:37:20;99220.06;;;13.32;75.15
55456;BME280;63021;52.836;6.376;2023-03-31T15:39:47;99217.97;;;13.27;75.26
55456;BME280;63021;52.836;6.376;2023-03-31T15:42:13;99225.63;;;13.30;75.38
55456;BME280;63021;52.836;6.376;2023-03-31T15:47:12;99218.63;;;13.29;75.47
55456;BME280;63021;52.836;6.376;2023-03-31T15:49:57;99224.38;;;13.26;75.08
55456;BME280;63021;52.836;6.376;2023-03-31T15:52:28;99221.69;;;13.20;74.71
55456;BME280;63021;52.836;6.376;2023-03-31T15:54:55;99216.94;;;13.08;74.76
55456;BME280;63021;52.836;6.376;2023-03-31T15:57:30;99218.38;;;13.04;75.28
55456;BME280;63021;52.836;6.376;2023-03-31T15:59:56;99218.38;;;12.97;75.05
55456;BME280;63021;52.836;6.376;2023-03-31T16:02:42;99223.69;;;12.91;75.51
55456;BME280;63021;52.836;6.376;2023-03-31T16:05:55;99222.84;;;12.83;75.53
55456;BME280;63021;52.836;6.376;2023-03-31T16:08:29;99221.22;;;12.76;75.87
55456;BME280;63021;52.836;6.376;2023-03-31T16:11:02;99222.63;;;12.72;75.75